Time;durP1;ratioP1;P1;durP2;ratioP2;P2;SDS_P1;SDS_P2;PMS_P1;PMS_P2;Temp;Humidity;BMP_temperature;BMP_pressure;BME280_temperature;BME280_humidity;BME280_pressure;Samples;Min_cycle;Max_cycle;Signal;HPM_P1;HPM_P2
2023/03/07 00:00:07;;;;;;;8.77;2.93;;;;;;;-145.18;100.00;46697.50;5018960;28;20399;-76
2023/03/07 00:02:32;;;;;;;13.10;3.50;;;;;;;-145.18;100.00;46695.56;5010021;28;20038;-76
2023/03/07 00:04:58;;;;;;;13.53;3.77;;;;;;;-145.18;100.00;46685.78;5010074;28;20290;-76
2023/03/07 00:07:24;;;;;;;7.40;3.67;;;;;;;-145.18;100.00;46687.75;4992288;28;20502;-76
2023/03/07 00:09:49;;;;;;;10.00;3.17;;;;;;;-145.18;100.00;46689.69;5017659;28;20341;-76
2023/03/07 00:12:15;;;;;;;11.10;3.47;;;;;;;-145.18;100.00;46699.47;5029458;28;20125;-76
2023/03/07 00:14:40;;;;;;;7.47;3.03;;;;;;;-145.18;100.00;46691.66;5029787;28;20049;-76
2023/03/07 00:17:06;;;;;;;9.13;2.70;;;;;;;-145.18;100.00;46683.84;5029456;28;20514;-76
2023/03/07 00:19:31;;;;;;;8.83;3.00;;;;;;;-145.18;100.00;46699.47;5024512;28;20104;-76
2023/03/07 00:21:56;;;;;;;7.77;2.70;;;;;;;-145.18;100.00;46699.47;5009596;28;20038;-76
2023/03/07 00:24:22;;;;;;;12.27;2.63;;;;;;;-145.18;100.00;46691.66;4992218;28;20050;-75
2023/03/07 00:26:47;;;;;;;8.77;3.10;;;;;;;-145.18;100.00;46687.75;5009741;28;20061;-75
2023/03/07 00:29:12;;;;;;;10.97;2.90;;;;;;;-145.18;100.00;46691.66;5016991;28;20037;-75
2023/03/07 00:31:38;;;;;;;4.40;2.77;;;;;;;-145.18;100.00;46685.78;5033490;28;20034;-75
2023/03/07 00:34:04;;;;;;;8.00;2.60;;;;;;;-145.18;100.00;46693.59;5033197;28;20029;-75
2023/03/07 00:36:29;;;;;;;7.43;2.87;;;;;;;-145.18;100.00;46681.88;5033487;28;20478;-74
2023/03/07 00:38:54;;;;;;;7.60;3.50;;;;;;;-145.18;100.00;46685.78;5031358;28;20029;-75
2023/03/07 00:41:25;;;;;;;7.90;3.33;;;;;;;-145.18;100.00;46693.59;5013689;28;20419;-74
2023/03/07 00:43:52;;;;;;;8.87;2.83;;;;;;;-145.18;100.00;46681.88;5013348;28;20501;-74
2023/03/07 00:46:19;;;;;;;9.83;3.20;;;;;;;-145.18;100.00;46693.59;4995703;28;20278;-74
2023/03/07 00:48:45;;;;;;;8.90;3.53;;;;;;;-145.18;100.00;46681.88;5013449;28;20654;-74
2023/03/07 00:51:14;;;;;;;14.20;3.63;;;;;;;-145.18;100.00;46679.94;5033324;28;20302;-74
2023/03/07 00:53:39;;;;;;;9.60;3.10;;;;;;;-145.18;100.00;46687.75;5033199;28;20772;-75
2023/03/07 00:56:19;;;;;;;8.73;2.87;;;;;;;-145.18;100.00;46691.66;5032524;28;20270;-74
2023/03/07 00:58:45;;;;;;;7.03;2.13;;;;;;;-145.18;100.00;46681.88;5031979;28;20076;-75
2023/03/07 01:01:13;;;;;;;9.93;3.40;;;;;;;-145.18;100.00;46689.69;5013349;28;20318;-75
2023/03/07 01:03:38;;;;;;;11.90;3.23;;;;;;;-145.18;100.00;46693.59;5013147;28;20715;-75
2023/03/07 01:06:07;;;;;;;10.57;2.73;;;;;;;-145.18;100.00;46683.84;5012707;28;20369;-73
2023/03/07 01:08:33;;;;;;;6.60;2.83;;;;;;;-145.18;100.00;46683.84;5012915;28;20046;-74
2023/03/07 01:11:00;;;;;;;6.37;2.83;;;;;;;-145.18;100.00;46685.78;5014035;28;20658;-74
2023/03/07 01:13:26;;;;;;;5.20;2.50;;;;;;;-145.18;100.00;46691.66;5021654;28;20038;-74
2023/03/07 01:15:51;;;;;;;11.70;2.87;;;;;;;-145.18;100.00;46683.84;5013107;28;20275;-74
2023/03/07 01:18:17;;;;;;;8.60;3.03;;;;;;;-145.18;100.00;46687.75;5012910;28;20084;-73
2023/03/07 01:20:42;;;;;;;9.17;2.83;;;;;;;-145.18;100.00;46689.69;5013348;28;20447;-73
2023/03/07 01:23:08;;;;;;;5.53;2.73;;;;;;;-145.18;100.00;46683.84;5012782;28;20084;-73
2023/03/07 01:25:38;;;;;;;9.17;3.00;;;;;;;-145.18;100.00;46683.84;5013136;28;20049;-73
2023/03/07 01:28:04;;;;;;;5.27;3.10;;;;;;;-145.18;100.00;46685.78;5012535;28;20187;-73
2023/03/07 01:30:29;;;;;;;9.07;3.63;;;;;;;-145.18;100.00;46687.75;5029833;28;20279;-73
2023/03/07 01:32:56;;;;;;;8.73;3.17;;;;;;;-145.18;100.00;46683.84;5031817;28;20045;-73
2023/03/07 01:35:22;;;;;;;11.60;4.60;;;;;;;-145.18;100.00;46687.75;5012988;28;20041;-74
2023/03/07 01:37:49;;;;;;;16.37;5.10;;;;;;;-145.18;100.00;46685.78;5012457;28;20651;-73
2023/03/07 01:40:14;;;;;;;16.90;5.07;;;;;;;-145.18;100.00;46685.78;5026177;28;20485;-73
2023/03/07 01:42:40;;;;;;;11.73;5.87;;;;;;;-145.18;100.00;46683.84;5032360;28;20325;-73
2023/03/07 01:45:07;;;;;;;13.30;6.10;;;;;;;-145.18;100.00;46679.94;5032279;28;20048;-73
2023/03/07 01:47:33;;;;;;;13.47;6.80;;;;;;;-145.18;100.00;46685.78;5032057;28;20029;-72
2023/03/07 01:50:03;;;;;;;17.63;6.60;;;;;;;-145.18;100.00;46681.88;5019500;28;20768;-72
2023/03/07 01:52:40;;;;;;;17.03;7.53;;;;;;;-145.18;100.00;46683.84;5012191;28;20260;-72
2023/03/07 01:55:13;;;;;;;17.47;7.80;;;;;;;-145.18;100.00;46685.78;5025939;28;20824;-73
2023/03/07 01:57:41;;;;;;;13.43;7.83;;;;;;;-145.18;100.00;46677.97;5013575;28;20647;-74
2023/03/07 02:00:12;;;;;;;18.90;9.03;;;;;;;-145.18;100.00;46677.97;5031899;28;20274;-74
2023/03/07 02:02:42;;;;;;;14.43;7.83;;;;;;;-145.18;100.00;46679.94;5031876;28;20298;-74
2023/03/07 02:05:25;;;;;;;19.17;8.33;;;;;;;-145.18;100.00;46677.97;5018324;28;20291;-74
2023/03/07 02:07:52;;;;;;;21.00;9.27;;;;;;;-145.18;100.00;46683.84;5011722;28;20279;-74
2023/03/07 02:10:20;;;;;;;17.73;8.70;;;;;;;-145.18;100.00;46683.84;5012227;28;20271;-74
2023/03/07 02:12:47;;;;;;;15.20;8.87;;;;;;;-145.18;100.00;46676.03;5011571;28;20293;-74
2023/03/07 02:15:13;;;;;;;21.30;9.00;;;;;;;-145.18;100.00;46681.88;5025115;28;20735;-74
2023/03/07 02:17:40;;;;;;;22.57;9.57;;;;;;;-145.18;100.00;46677.97;5031379;28;20274;-74
2023/03/07 02:20:26;;;;;;;17.97;9.90;;;;;;;-145.18;100.00;46683.84;5031619;28;20703;-72
2023/03/07 02:22:53;;;;;;;20.90;9.38;;;;;;;-145.18;100.00;46681.88;5030841;28;20275;-72
2023/03/07 02:25:31;;;;;;;19.20;9.07;;;;;;;-145.18;100.00;46679.94;5030818;28;20140;-74
2023/03/07 02:27:58;;;;;;;20.90;9.37;;;;;;;-145.18;100.00;46679.94;5029319;28;20266;-74
2023/03/07 02:30:23;;;;;;;18.30;8.53;;;;;;;-145.18;100.00;46681.88;5013976;28;20767;-73
2023/03/07 02:32:48;;;;;;;22.77;8.27;;;;;;;-145.18;100.00;46679.94;5031169;28;20279;-73
2023/03/07 02:35:21;;;;;;;21.00;9.23;;;;;;;-145.18;100.00;46677.97;5014081;28;20125;-73
2023/03/07 02:37:53;;;;;;;20.70;8.47;;;;;;;-145.18;100.00;46677.97;5011238;28;20507;-74
2023/03/07 02:40:23;;;;;;;17.40;7.77;;;;;;;-145.18;100.00;46679.94;5011389;28;20299;-73
2023/03/07 02:42:52;;;;;;;15.63;8.07;;;;;;;-145.18;100.00;46687.75;5011256;28;20278;-74
2023/03/07 02:45:18;;;;;;;20.00;8.40;;;;;;;-145.18;100.00;46685.78;5028762;28;20297;-74
2023/03/07 02:47:44;;;;;;;18.30;8.07;;;;;;;-145.18;100.00;46685.78;5030716;28;20652;-73
2023/03/07 02:50:11;;;;;;;15.80;7.87;;;;;;;-145.18;100.00;46681.88;5031063;28;20048;-73
2023/03/07 02:52:37;;;;;;;15.97;8.37;;;;;;;-145.18;100.00;46683.84;5030743;28;20282;-74
2023/03/07 02:55:02;;;;;;;23.03;8.27;;;;;;;-145.18;100.00;46676.03;5015239;28;20279;-73
2023/03/07 02:57:28;;;;;;;23.97;8.27;;;;;;;-145.18;100.00;46677.97;5011103;28;20038;-73
2023/03/07 02:59:53;;;;;;;18.57;7.80;;;;;;;-145.18;100.00;46681.88;5010831;28;20088;-73
2023/03/07 03:02:18;;;;;;;20.30;9.13;;;;;;;-145.18;100.00;46685.78;5354597;23;20057;-73
2023/03/07 03:04:44;;;;;;;15.13;8.07;;;;;;;-145.18;100.00;46683.84;5016019;28;20423;-73
2023/03/07 03:07:09;;;;;;;19.53;9.77;;;;;;;-145.18;100.00;46683.84;5026954;28;20038;-73
2023/03/07 03:09:35;;;;;;;20.13;9.03;;;;;;;-145.18;100.00;46683.84;5022623;28;20022;-71
2023/03/07 03:12:00;;;;;;;20.67;9.30;;;;;;;-145.18;100.00;46685.78;5010639;28;20048;-71
2023/03/07 03:14:26;;;;;;;23.10;9.33;;;;;;;-145.18;100.00;46691.66;5010924;28;20459;-71
2023/03/07 03:16:52;;;;;;;20.47;9.13;;;;;;;-145.18;100.00;46683.84;5010827;28;20470;-70
2023/03/07 03:19:18;;;;;;;25.50;8.77;;;;;;;-145.18;100.00;46689.69;5023369;28;20044;-70
2023/03/07 03:21:43;;;;;;;28.03;11.73;;;;;;;-145.18;100.00;46683.84;5050321;28;20282;-70
2023/03/07 03:24:09;;;;;;;18.97;8.97;;;;;;;-145.18;100.00;46679.94;5050318;28;20048;-70
2023/03/07 03:26:35;;;;;;;23.50;8.83;;;;;;;-145.18;100.00;46683.84;5050623;28;20060;-72
2023/03/07 03:29:02;;;;;;;20.00;8.67;;;;;;;-145.18;100.00;46681.88;5042963;28;20317;-73
2023/03/07 03:31:29;;;;;;;23.83;9.67;;;;;;;-145.18;100.00;46691.66;5030696;28;20033;-73
2023/03/07 03:33:55;;;;;;;21.33;8.33;;;;;;;-145.18;100.00;46687.75;5030164;28;20275;-72
2023/03/07 03:36:24;;;;;;;15.53;9.23;;;;;;;-145.18;100.00;46685.78;5030569;28;20321;-72
2023/03/07 03:38:54;;;;;;;16.70;7.63;;;;;;;-145.18;100.00;46681.88;5034962;28;20033;-72
2023/03/07 03:41:20;;;;;;;19.37;9.40;;;;;;;-145.18;100.00;46687.75;5050289;28;20821;-72
2023/03/07 03:43:46;;;;;;;18.53;8.43;;;;;;;-145.18;100.00;46687.75;5050095;28;20368;-72
2023/03/07 03:46:11;;;;;;;14.80;7.73;;;;;;;-145.18;100.00;46689.69;5049961;28;20068;-72
2023/03/07 03:48:37;;;;;;;16.40;9.03;;;;;;;-145.18;100.00;46683.84;5029050;28;20056;-72
2023/03/07 03:51:09;;;;;;;17.13;10.70;;;;;;;-145.18;100.00;46687.75;5030072;28;20056;-73
2023/03/07 03:53:36;;;;;;;22.47;9.50;;;;;;;-145.18;100.00;46689.69;5030190;28;20477;-73
2023/03/07 03:56:13;;;;;;;21.93;11.30;;;;;;;-145.18;100.00;46685.78;5030033;28;20754;-72
2023/03/07 03:58:39;;;;;;;15.87;10.23;;;;;;;-145.18;100.00;46699.47;5035183;28;20270;-72
2023/03/07 04:01:10;;;;;;;18.43;9.23;;;;;;;-145.18;100.00;46691.66;5047977;28;20773;-72
2023/03/07 04:03:38;;;;;;;23.13;11.90;;;;;;;-145.18;100.00;46695.56;5028687;28;20302;-72
2023/03/07 04:06:06;;;;;;;15.17;7.13;;;;;;;-145.18;100.00;46691.66;5029928;28;20354;-72
2023/03/07 04:08:33;;;;;;;14.57;8.57;;;;;;;-145.18;100.00;46681.88;5029076;28;20288;-72
2023/03/07 04:10:59;;;;;;;14.10;8.00;;;;;;;-145.18;100.00;46689.69;5029813;28;20662;-72
2023/03/07 04:13:25;;;;;;;17.33;7.73;;;;;;;-145.18;100.00;46687.75;5029790;28;20354;-72
2023/03/07 04:15:51;;;;;;;17.17;8.10;;;;;;;-145.18;100.00;46689.69;5030171;28;20137;-72
2023/03/07 04:18:17;;;;;;;14.87;7.03;;;;;;;-145.18;100.00;46693.59;5015397;28;20743;-72
2023/03/07 04:20:43;;;;;;;18.17;8.47;;;;;;;-145.18;100.00;46689.69;5030024;28;20282;-72
2023/03/07 04:23:09;;;;;;;14.67;6.70;;;;;;;-145.18;100.00;46689.69;5029538;28;20275;-72
2023/03/07 04:25:34;;;;;;;14.87;6.83;;;;;;;-145.18;100.00;46695.56;5029974;28;20304;-72
2023/03/07 04:28:00;;;;;;;15.17;7.30;;;;;;;-145.18;100.00;46687.75;5029249;28;20072;-72
2023/03/07 04:30:25;;;;;;;16.07;7.57;;;;;;;-145.18;100.00;46693.59;5029855;28;20040;-72
2023/03/07 04:32:51;;;;;;;15.53;7.77;;;;;;;-145.18;100.00;46687.75;5029876;28;20034;-72
2023/03/07 04:35:16;;;;;;;14.83;7.73;;;;;;;-145.18;100.00;46697.50;5029678;28;20501;-72
2023/03/07 04:37:42;;;;;;;13.97;7.23;;;;;;;-145.18;100.00;46691.66;5016571;28;20096;-72
2023/03/07 04:40:08;;;;;;;15.13;7.13;;;;;;;-145.18;100.00;46693.59;5026286;28;20054;-72
2023/03/07 04:42:33;;;;;;;14.93;6.13;;;;;;;-145.18;100.00;46699.47;5029779;28;20033;-72
2023/03/07 04:44:59;;;;;;;12.50;6.37;;;;;;;-145.18;100.00;46697.50;5029017;28;20299;-72
2023/03/07 04:47:24;;;;;;;15.30;7.00;;;;;;;-145.18;100.00;46703.38;5029858;28;20038;-72
2023/03/07 04:49:50;;;;;;;13.63;6.83;;;;;;;-145.18;100.00;46691.66;5013762;28;20038;-72
2023/03/07 04:52:15;;;;;;;14.23;6.60;;;;;;;-145.18;100.00;46705.31;5009716;28;20042;-72
2023/03/07 04:54:40;;;;;;;14.70;7.53;;;;;;;-145.18;100.00;46689.69;5010030;28;20037;-72
2023/03/07 04:57:06;;;;;;;12.93;7.67;;;;;;;-145.18;100.00;46697.50;5019288;28;20638;-72
2023/03/07 04:59:31;;;;;;;18.87;8.73;;;;;;;-145.18;100.00;46703.38;5016456;28;20112;-72
2023/03/07 05:01:57;;;;;;;15.67;8.80;;;;;;;-145.18;100.00;46689.69;5009856;28;20026;-72
2023/03/07 05:04:22;;;;;;;16.30;8.20;;;;;;;-145.18;100.00;46695.56;5018995;28;20123;-72
2023/03/07 05:06:48;;;;;;;21.20;9.20;;;;;;;-145.18;100.00;46693.59;5016501;28;20461;-72
2023/03/07 05:09:13;;;;;;;17.13;10.47;;;;;;;-145.18;100.00;46701.41;4999208;28;20034;-72
2023/03/07 05:11:39;;;;;;;23.60;10.80;;;;;;;-145.18;100.00;46699.47;5019135;28;20084;-72
2023/03/07 05:14:04;;;;;;;23.37;10.83;;;;;;;-145.18;100.00;46707.28;5018237;28;20493;-72
2023/03/07 05:16:30;;;;;;;22.60;11.27;;;;;;;-145.18;100.00;46695.56;5022686;28;20504;-72
2023/03/07 05:18:55;;;;;;;23.03;11.30;;;;;;;-145.18;100.00;46707.28;5023527;28;20033;-72
2023/03/07 05:21:21;;;;;;;18.57;10.87;;;;;;;-145.18;100.00;46693.59;5019900;28;20108;-72
2023/03/07 05:23:46;;;;;;;17.90;11.63;;;;;;;-145.18;100.00;46687.75;5014721;28;20072;-72
2023/03/07 05:26:11;;;;;;;19.87;10.73;;;;;;;-145.18;100.00;46707.28;5028747;28;20474;-72
2023/03/07 05:28:37;;;;;;;28.20;13.73;;;;;;;-145.18;100.00;46703.38;5012972;28;20120;-72
2023/03/07 05:31:02;;;;;;;22.73;12.10;;;;;;;-145.18;100.00;46705.31;5023240;28;20037;-72
2023/03/07 05:33:27;;;;;;;19.37;10.93;;;;;;;-145.18;100.00;46699.47;5032191;28;20072;-72
2023/03/07 05:35:54;;;;;;;21.67;11.70;;;;;;;-145.18;100.00;46697.50;5029611;28;20380;-72
2023/03/07 05:38:20;;;;;;;17.87;10.87;;;;;;;-145.18;100.00;46707.28;5027622;28;20058;-72
2023/03/07 05:40:45;;;;;;;25.47;12.90;;;;;;;-145.18;100.00;46703.38;5020949;28;20423;-72
2023/03/07 05:43:10;;;;;;;22.57;12.93;;;;;;;-145.18;100.00;46703.38;5031948;28;20548;-72
2023/03/07 05:45:36;;;;;;;26.20;13.03;;;;;;;-145.18;100.00;46701.41;5032376;28;20033;-72
2023/03/07 05:48:01;;;;;;;24.67;13.03;;;;;;;-145.18;100.00;46701.41;5031263;28;20037;-72
2023/03/07 05:50:27;;;;;;;24.23;13.57;;;;;;;-145.18;100.00;46705.31;5031305;28;20675;-72
2023/03/07 05:52:52;;;;;;;28.07;13.97;;;;;;;-145.18;100.00;46705.31;5014534;28;20065;-72
2023/03/07 05:55:17;;;;;;;29.17;15.93;;;;;;;-145.18;100.00;46693.59;5014438;28;20046;-72
2023/03/07 05:57:43;;;;;;;19.03;11.97;;;;;;;-145.18;100.00;46689.69;5032270;28;20069;-72
2023/03/07 06:00:10;;;;;;;16.30;10.03;;;;;;;-145.18;100.00;46697.50;5031445;28;20076;-72
2023/03/07 06:02:35;;;;;;;17.87;10.23;;;;;;;-145.18;100.00;46691.66;5014094;28;20045;-72
2023/03/07 06:05:01;;;;;;;19.50;12.67;;;;;;;-145.18;100.00;46703.38;5032043;28;20377;-72
2023/03/07 06:07:26;;;;;;;20.60;12.17;;;;;;;-145.18;100.00;46697.50;5031526;28;20045;-72
2023/03/07 06:09:51;;;;;;;21.50;12.33;;;;;;;-145.18;100.00;46701.41;5032120;28;20116;-72
2023/03/07 06:12:17;;;;;;;19.13;11.13;;;;;;;-145.18;100.00;46705.31;5016778;28;20038;-72
2023/03/07 06:14:42;;;;;;;14.83;9.07;;;;;;;-145.18;100.00;46705.31;5016943;28;20021;-72
2023/03/07 06:17:07;;;;;;;17.93;10.03;;;;;;;-145.18;100.00;46693.59;5012591;28;20477;-72
2023/03/07 06:19:33;;;;;;;15.13;9.00;;;;;;;-145.18;100.00;46703.38;5025621;28;20034;-72
2023/03/07 06:21:58;;;;;;;17.43;11.57;;;;;;;-145.18;100.00;46691.66;5031654;28;20504;-72
2023/03/07 06:24:24;;;;;;;19.63;11.13;;;;;;;-145.18;100.00;46699.47;5031513;28;20061;-72
2023/03/07 06:26:49;;;;;;;17.13;9.10;;;;;;;-145.18;100.00;46701.41;5019110;28;20486;-72
2023/03/07 06:29:15;;;;;;;16.13;9.77;;;;;;;-145.18;100.00;46709.22;5011357;28;20120;-72
2023/03/07 06:31:40;;;;;;;21.07;11.47;;;;;;;-145.18;100.00;46695.56;4994611;28;20642;-72
2023/03/07 06:34:05;;;;;;;21.93;12.73;;;;;;;-145.18;100.00;46691.66;5011464;28;20080;-72
2023/03/07 06:36:31;;;;;;;21.00;12.17;;;;;;;-145.18;100.00;46699.47;5012226;28;20479;-72
2023/03/07 06:38:56;;;;;;;22.97;12.10;;;;;;;-145.18;100.00;46701.41;5011018;28;20037;-72
2023/03/07 06:41:21;;;;;;;19.57;11.50;;;;;;;-145.18;100.00;46707.28;4993936;28;20492;-72
2023/03/07 06:43:51;;;;;;;22.90;10.40;;;;;;;-145.18;100.00;46697.50;5011451;28;20041;-72
2023/03/07 06:46:17;;;;;;;3.93;1.83;;;;;;;-145.18;100.00;46695.56;5011415;28;20030;-72
2023/03/07 06:48:42;;;;;;;3.37;1.60;;;;;;;-145.18;100.00;46703.38;5019226;28;20400;-72
2023/03/07 06:51:09;;;;;;;2.77;1.23;;;;;;;-145.18;100.00;46707.28;5025302;28;20049;-72
2023/03/07 06:53:34;;;;;;;3.63;1.20;;;;;;;-145.18;100.00;46707.28;5023121;28;20038;-72
2023/03/07 06:55:59;;;;;;;7.43;1.40;;;;;;;-145.18;100.00;46697.50;5028848;28;20274;-72
2023/03/07 06:58:25;;;;;;;5.77;1.30;;;;;;;-145.18;100.00;46705.31;5030057;28;20036;-72
2023/03/07 07:00:50;;;;;;;7.97;1.53;;;;;;;-145.18;100.00;46703.38;5021518;28;20125;-72
2023/03/07 07:03:18;;;;;;;7.00;2.87;;;;;;;-145.18;100.00;46695.56;5015943;28;20133;-72
2023/03/07 07:05:44;;;;;;;5.13;1.00;;;;;;;-145.18;100.00;46703.38;5025257;28;20064;-72
2023/03/07 07:08:09;;;;;;;7.40;1.47;;;;;;;-145.18;100.00;46703.38;5029451;28;20470;-72
2023/03/07 07:10:35;;;;;;;6.67;1.90;;;;;;;-145.18;100.00;46703.38;5028807;28;20061;-72
2023/03/07 07:13:01;;;;;;;4.38;1.40;;;;;;;-145.18;100.00;46689.69;5020078;28;20026;-72
2023/03/07 07:15:26;;;;;;;6.20;2.00;;;;;;;-145.18;100.00;46703.38;5017375;28;20033;-72
2023/03/07 07:17:52;;;;;;;7.93;1.60;;;;;;;-145.18;100.00;46701.41;5019028;28;20036;-72
2023/03/07 07:20:18;;;;;;;3.50;1.57;;;;;;;-145.18;100.00;46697.50;5000305;28;20506;-72
2023/03/07 07:22:43;;;;;;;5.93;2.23;;;;;;;-145.18;100.00;46703.38;5029036;28;20072;-72
2023/03/07 07:25:10;;;;;;;6.00;2.50;;;;;;;-145.18;100.00;46703.38;5012149;28;20065;-72
2023/03/07 07:27:35;;;;;;;5.85;2.22;;;;;;;-145.18;100.00;46697.50;5026563;28;20569;-72
2023/03/07 07:30:02;;;;;;;12.17;3.20;;;;;;;-145.18;100.00;46693.59;5031594;28;20164;-73
2023/03/07 07:32:27;;;;;;;7.70;2.47;;;;;;;-145.18;100.00;46691.66;5021655;28;20129;-72
2023/03/07 07:34:52;;;;;;;6.47;2.33;;;;;;;-145.18;100.00;46693.59;5022462;28;20125;-72
2023/03/07 07:37:18;;;;;;;6.47;2.70;;;;;;;-145.18;100.00;46695.56;5009793;28;20076;-73
2023/03/07 07:39:44;;;;;;;6.20;2.60;;;;;;;-145.18;100.00;46703.38;5014815;28;20034;-73
2023/03/07 07:42:10;;;;;;;3.80;2.00;;;;;;;-145.18;100.00;46697.50;5029637;28;20025;-72
2023/03/07 07:44:35;;;;;;;4.35;2.53;;;;;;;-145.18;100.00;46697.50;5029287;28;20029;-73
2023/03/07 07:47:01;;;;;;;6.60;2.37;;;;;;;-145.18;100.00;46695.56;5029748;28;20419;-72
2023/03/07 07:49:26;;;;;;;9.87;2.17;;;;;;;-145.18;100.00;46695.56;5029505;28;20038;-72
2023/03/07 07:51:52;;;;;;;6.63;2.80;;;;;;;-145.18;100.00;46695.56;5029799;28;20397;-73
2023/03/07 07:54:17;;;;;;;6.30;3.00;;;;;;;-145.18;100.00;46691.66;5028590;28;20509;-72
2023/03/07 07:56:43;;;;;;;8.60;3.00;;;;;;;-145.18;100.00;46687.75;5029745;28;20030;-72
2023/03/07 07:59:08;;;;;;;5.03;2.90;;;;;;;-145.18;100.00;46689.69;5029443;28;20029;-73
2023/03/07 08:01:33;;;;;;;8.93;3.30;;;;;;;-145.18;100.00;46691.66;5028769;28;20513;-72
2023/03/07 08:03:59;;;;;;;7.57;3.23;;;;;;;-145.18;100.00;46689.69;5013743;28;20082;-73
2023/03/07 08:06:26;;;;;;;12.97;3.80;;;;;;;-145.18;100.00;46689.69;5027056;28;20144;-73
2023/03/07 08:08:53;;;;;;;6.45;3.53;;;;;;;-145.18;100.00;46691.66;5029373;28;20446;-73
2023/03/07 08:11:19;;;;;;;6.30;3.40;;;;;;;-145.18;100.00;46683.84;5029555;28;20037;-73
2023/03/07 08:13:45;;;;;;;9.38;4.32;;;;;;;-145.18;100.00;46689.69;5028229;28;20041;-72
2023/03/07 08:16:16;;;;;;;10.60;5.80;;;;;;;-145.18;100.00;46687.75;5029359;28;20044;-73
2023/03/07 08:18:41;;;;;;;9.68;4.50;;;;;;;-145.18;100.00;46687.75;5029422;28;20386;-73
2023/03/07 08:21:07;;;;;;;7.93;4.03;;;;;;;-145.18;100.00;46685.78;5029398;28;20045;-72
2023/03/07 08:23:34;;;;;;;6.55;4.10;;;;;;;-145.18;100.00;46687.75;5029312;28;20506;-73
2023/03/07 08:26:07;;;;;;;8.48;4.40;;;;;;;-145.18;100.00;46685.78;5028262;28;20041;-73
2023/03/07 08:28:33;;;;;;;8.98;4.57;;;;;;;-145.18;100.00;46683.84;5029137;28;20070;-73
2023/03/07 08:31:05;;;;;;;8.83;4.73;;;;;;;-145.18;100.00;46681.88;5028904;28;20124;-73
2023/03/07 08:33:31;;;;;;;9.25;4.55;;;;;;;-145.18;100.00;46685.78;5021928;28;20029;-73
2023/03/07 08:35:58;;;;;;;10.87;4.50;;;;;;;-145.18;100.00;46681.88;5021452;28;20045;-73
2023/03/07 08:38:24;;;;;;;8.55;4.80;;;;;;;-145.18;100.00;46681.88;5012771;28;20034;-73
2023/03/07 08:40:49;;;;;;;9.67;4.50;;;;;;;-145.18;100.00;46683.84;5020044;28;20045;-73
2023/03/07 08:43:14;;;;;;;8.90;4.37;;;;;;;-145.18;100.00;46679.94;5020401;28;20042;-73
2023/03/07 08:45:40;;;;;;;11.33;4.57;;;;;;;-145.18;100.00;46681.88;5016818;28;20072;-73
2023/03/07 08:48:05;;;;;;;10.97;4.73;;;;;;;-145.18;100.00;46681.88;5028610;28;20037;-73
2023/03/07 08:50:31;;;;;;;8.40;4.50;;;;;;;-145.18;100.00;46677.97;5033036;28;20041;-73
2023/03/07 08:52:56;;;;;;;11.97;4.80;;;;;;;-145.18;100.00;46677.97;5012794;28;20514;-73
2023/03/07 08:55:22;;;;;;;9.40;4.43;;;;;;;-145.18;100.00;46679.94;5019341;28;20485;-73
2023/03/07 08:57:47;;;;;;;8.97;4.70;;;;;;;-145.18;100.00;46679.94;5025883;28;20382;-73
2023/03/07 09:00:13;;;;;;;9.77;4.27;;;;;;;-145.18;100.00;46677.97;5025232;28;20037;-73
2023/03/07 09:02:39;;;;;;;9.47;5.00;;;;;;;-145.18;100.00;46679.94;5027877;28;20494;-73
2023/03/07 09:05:05;;;;;;;8.30;4.80;;;;;;;-145.18;100.00;46676.03;5015596;28;20053;-73
2023/03/07 09:07:30;;;;;;;9.50;5.60;;;;;;;-145.18;100.00;46681.88;5026156;28;20360;-73
2023/03/07 09:09:55;;;;;;;9.80;5.43;;;;;;;-145.18;100.00;46681.88;5022533;28;20021;-73
2023/03/07 09:12:21;;;;;;;8.73;5.30;;;;;;;-145.18;100.00;46679.94;5052961;28;20220;-73
2023/03/07 09:14:46;;;;;;;10.77;6.97;;;;;;;-145.18;100.00;46679.94;5052288;28;20040;-73
2023/03/07 09:17:12;;;;;;;11.20;6.50;;;;;;;-145.18;100.00;46681.88;5012922;28;20034;-73
2023/03/07 09:19:37;;;;;;;13.63;9.00;;;;;;;-145.18;100.00;46681.88;5019049;28;20029;-73
2023/03/07 09:22:03;;;;;;;10.10;6.03;;;;;;;-145.18;100.00;46683.84;5032569;28;20048;-73
2023/03/07 09:24:29;;;;;;;9.40;5.23;;;;;;;-145.18;100.00;46683.84;5032607;28;20851;-73
2023/03/07 09:26:55;;;;;;;9.13;4.78;;;;;;;-145.18;100.00;46683.84;5032569;28;20139;-73
2023/03/07 09:29:20;;;;;;;11.23;5.33;;;;;;;-145.18;100.00;46685.78;5032311;28;20064;-73
2023/03/07 09:31:45;;;;;;;10.33;5.53;;;;;;;-145.18;100.00;46681.88;5032503;28;20033;-73
2023/03/07 09:34:11;;;;;;;9.87;6.00;;;;;;;-145.18;100.00;46683.84;5031797;28;20033;-73
2023/03/07 09:36:37;;;;;;;9.00;5.10;;;;;;;-145.18;100.00;46685.78;5043453;28;20553;-73
2023/03/07 09:39:03;;;;;;;8.90;4.83;;;;;;;-145.18;100.00;46681.88;5028286;28;20537;-73
2023/03/07 09:41:32;;;;;;;11.27;6.30;;;;;;;-145.18;100.00;46687.75;5031012;28;20072;-73
2023/03/07 09:44:16;;;;;;;9.23;5.27;;;;;;;-145.18;100.00;46683.84;5031668;28;20327;-73
2023/03/07 09:47:02;;;;;;;9.90;5.67;;;;;;;-145.18;100.00;46685.78;5031806;28;20342;-73
2023/03/07 09:49:32;;;;;;;;;;;;;;;-145.18;100.00;46687.75;5024302;28;20305;-73
2023/03/07 09:52:00;;;;;;;10.03;5.27;;;;;;;-145.18;100.00;46683.84;5031490;28;19921;-74
2023/03/07 09:54:40;;;;;;;8.53;4.80;;;;;;;-145.18;100.00;46685.78;5032014;28;20353;-74
2023/03/07 09:57:15;;;;;;;7.20;4.37;;;;;;;-145.18;100.00;46687.75;5030325;28;20274;-73
2023/03/07 09:59:49;;;;;;;12.18;4.60;;;;;;;-145.18;100.00;46687.75;5029858;28;20263;-73
2023/03/07 10:02:33;;;;;;;7.77;4.07;;;;;;;-145.18;100.00;46685.78;5047867;28;20049;-74
2023/03/07 10:05:27;;;;;;;8.30;4.60;;;;;;;-145.18;100.00;46693.59;5051264;28;20298;-74
2023/03/07 10:07:53;;;;;;;8.63;4.87;;;;;;;-145.18;100.00;46691.66;5051913;28;20262;-75
2023/03/07 10:10:30;;;;;;;8.63;4.83;;;;;;;-145.18;100.00;46689.69;5051085;28;20281;-74
2023/03/07 10:13:15;;;;;;;7.83;4.60;;;;;;;-145.18;100.00;46691.66;5051321;28;20258;-74
2023/03/07 10:15:47;;;;;;;8.95;5.65;;;;;;;-145.18;100.00;46693.59;5051650;28;20404;-73
2023/03/07 10:18:30;;;;;;;8.40;5.07;;;;;;;-145.18;100.00;46691.66;5033503;28;20529;-74
2023/03/07 10:21:42;;;;;;;6.73;4.67;;;;;;;-145.18;100.00;46691.66;5050699;28;20360;-75
2023/03/07 10:24:22;;;;;;;9.30;5.23;;;;;;;-145.18;100.00;46695.56;5045617;28;20285;-74
2023/03/07 10:27:03;;;;;;;8.53;4.70;;;;;;;-145.18;100.00;46691.66;5051046;28;20345;-74
2023/03/07 10:29:35;;;;;;;6.53;3.90;;;;;;;-145.18;100.00;46697.50;5051623;28;20273;-74
2023/03/07 10:32:32;;;;;;;7.67;4.00;;;;;;;-145.18;100.00;46691.66;5050706;28;20266;-75
2023/03/07 10:35:12;;;;;;;8.77;4.47;;;;;;;-145.18;100.00;46693.59;5033052;28;20353;-75
2023/03/07 10:37:51;;;;;;;8.27;4.30;;;;;;;-145.18;100.00;46693.59;5051314;28;20266;-75
2023/03/07 10:40:24;;;;;;;6.40;4.23;;;;;;;-145.18;100.00;46687.75;5050903;28;20353;-74
2023/03/07 10:42:51;;;;;;;8.20;4.60;;;;;;;-145.18;100.00;46687.75;5051155;28;20273;-75
2023/03/07 10:45:17;;;;;;;6.47;4.00;;;;;;;-145.18;100.00;46683.84;5038665;28;20301;-74
2023/03/07 10:47:43;;;;;;;6.30;4.43;;;;;;;-145.18;100.00;46685.78;5022212;28;20275;-74
2023/03/07 10:50:25;;;;;;;7.10;3.70;;;;;;;-145.18;100.00;46676.03;5028792;28;20034;-75
2023/03/07 10:52:59;;;;;;;6.43;4.03;;;;;;;-145.18;100.00;46674.06;5023369;28;20490;-74
2023/03/07 10:55:42;;;;;;;7.47;4.23;;;;;;;-145.18;100.00;46666.25;5012417;28;20306;-74
2023/03/07 10:58:21;;;;;;;9.37;3.90;;;;;;;-145.18;100.00;46664.31;5016937;28;20279;-74
2023/03/07 11:01:00;;;;;;;6.70;4.00;;;;;;;-145.18;100.00;46666.25;5027923;28;20275;-75
2023/03/07 11:03:30;;;;;;;7.83;5.60;;;;;;;-145.18;100.00;46664.31;5025705;28;20262;-74
2023/03/07 11:05:55;;;;;;;17.00;9.40;;;;;;;-145.18;100.00;46664.31;5027588;28;20294;-75